• Join FlightAware (Why Join?)
  • Login
  • US Flag 
11:33AM EDT


 

Airport Tracker/Info


-or-


 

Live Flight TrackerFlight Track Log ✈ SWA508 ✈ 02-May-2013 ✈ KPIT - KMDW

Flight Track Log - Related Links

Times and Time Zones

All times are in EDT time to prevent confusion due to time zone crossing. See the SWA508 flight status page for this flight to view local times or setup timezone preferences in your user account.

Time Position Orientation Groundspeed Altitude Reporting Facility
EDT Latitude Longitude Course Direction KTS MPH feet Rate Location/Type
11:06AM 40.5692 -80.3206 286° West 291 335 8,100  Level Cleveland Center
11:07AM 40.5883 -80.4300 283° West 318 366 11,200 3,180 Climbing Cleveland Center
11:08AM 40.6050 -80.5586 280° West 348 400 14,500 3,300 Climbing Cleveland Center
11:09AM 40.6570 -81.0830 286° West  Level FlightAware Approximate
11:09AM 40.6278 -80.6953 282° West 374 430 17,900  Level Cleveland Center
11:10AM 40.6831 -81.2068 286° West  Level FlightAware Approximate
11:10AM 40.6506 -80.8322 282° West 374 430 20,400  Level Cleveland Center
11:11AM 40.7091 -81.3307 286° West  Level FlightAware Approximate
11:11AM 40.6731 -80.9772 282° West 392 451 23,300  Level Cleveland Center
11:12AM 40.6914 -81.1144 280° West 417 480 25,700 2,340 Climbing Cleveland Center
11:13AM 40.7197 -81.2681 284° West 432 497 28,000 2,580 Climbing Cleveland Center
11:14AM 40.7500 -81.4217 285° West 432 497 30,900 1,980 Climbing Cleveland Center
11:15AM 40.7800 -81.5703 285° West 432 497 32,000 540 Climbing Cleveland Center
11:16AM 40.8056 -81.7214 283° West 427 491 32,000  Level Cleveland Center
11:17AM 40.8353 -81.8839 284° West 427 491 32,000  Level Cleveland Center
11:18AM 40.8647 -82.0328 285° West 427 491 32,000  Level Cleveland Center
11:19AM 40.8919 -82.1844 283° West 422 486 32,000  Level Cleveland Center
11:20AM 40.9189 -82.3308 284° West 417 480 32,000  Level Cleveland Center
11:21AM 40.9456 -82.4828 283° West 417 480 32,000  Level Cleveland Center
11:22AM 40.9722 -82.6347 283° West 417 480 32,000  Level Cleveland Center
11:23AM 40.9947 -82.7703 282° West 417 480 32,000  Level Cleveland Center
11:24AM 41.0231 -82.9225 284° West 417 480 32,000  Level Cleveland Center
11:25AM 41.0489 -83.0722 283° West 417 480 32,000  Level Cleveland Center
11:26AM 41.0806 -83.2386 284° West 417 480 32,000  Level Cleveland Center
11:27AM 41.1003 -83.3744 281° West 422 486 32,000  Level Cleveland Center
11:28AM 41.1258 -83.5244 283° West 417 480 32,000  Level Cleveland Center
11:29AM 41.1531 -83.6775 283° West 417 480 32,000  Level Cleveland Center
11:30AM 41.1781 -83.8275 283° West 417 480 32,000  Level Cleveland Center
11:31AM 41.2050 -83.9753 284° West 417 480 32,000  Level Cleveland Center
11:33AM 41.2600 -84.3067 283° West 421 484 32,000  Level Chicago Center
11:34AM 41.2853 -84.4597 282° West 424 488 32,000 -480 Level Chicago Center
11:35AM 41.3092 -84.6111 282° West 420 483 31,100 -960 Descending Chicago Center
11:36AM 41.3328 -84.7636 282° West 421 484 30,100 -540 Descending Chicago Center
11:37AM 41.3567 -84.9097 282° West 409 471 30,000 -60 Descending Chicago Center
11:38AM 41.3786 -85.0575 281° West 407 468 30,000 -780 Level Chicago Center
11:39AM 41.4008 -85.2047 281° West 406 467 28,500 -2,040 Descending Chicago Center
11:40AM 41.4236 -85.3542 282° West 406 467 25,900 -2,520 Descending Chicago Center
11:41AM 41.4511 -85.5369 281° West 411 473 23,300 -2,280 Descending Chicago Center
11:42AM 41.4731 -85.6789 282° West 388 447 21,200 -2,040 Descending Chicago Center
11:43AM 41.4933 -85.8164 281° West 375 432 19,100 -2,220 Descending Chicago Center
11:44AM 41.5139 -85.9544 281° West 376 433 16,700 -2,520 Descending Chicago Center
11:45AM 41.5250 -86.0947 276° West 382 440 14,000 -2,520 Descending Chicago Center
11:46AM 41.5231 -86.2350 269° West 378 435 11,500 -1,920 Descending Chicago Center
11:47AM 41.5219 -86.3653 269° West 349 402 10,100 -780 Descending Chicago Center
11:48AM 41.5211 -86.5078 270° West 321 369 9,900 -120 Descending Chicago Center
11:49AM 41.5206 -86.6289 270° West 325 374 9,900  Level Chicago Center
11:50AM 41.5206 -86.7386 270° West 329 379 9,900 -60 Level Chicago Center
11:51AM 41.5189 -86.8789 269° West 316 364 9,800 -840 Descending Chicago Center
11:52AM 41.5167 -86.9875 268° West 297 342 8,200 -1,380 Descending Chicago Center
11:53AM 41.5161 -87.0956 270° West 292 336 7,000 -600 Descending Chicago Center
11:54AM 41.5286 -87.1986 279° West 284 327 7,000 -540 Level Chicago Center
11:55AM 41.5333 -87.3000 274° West 281 323 6,000 -1,080 Descending Chicago TRACON
11:56AM 41.5667 -87.4000 294° West 280 322 5,000 -1,020 Descending Chicago TRACON
11:57AM 41.5833 -87.5000 283° West 277 319 4,000 -600 Descending Chicago TRACON
11:58AM 41.6000 -87.6000 283° West 269 310 3,800 -540 Descending Chicago TRACON
11:59AM 41.6000 -87.7000 270° West 264 304 3,000 -780 Descending Chicago TRACON
12:00PM 41.6500 -87.7667 315° West 235 270 2,400 -360 Descending Chicago TRACON
12:01PM 41.6833 -87.8167 312° West 182 209 2,400 -120 Level Chicago TRACON
12:02PM 41.7167 -87.8333 340° North 179 206 2,200 -420 Descending Chicago TRACON
12:03PM 41.7500 -87.8000 37° Northeast 123 142 1,600 -600 Descending Chicago TRACON
12:07PM 41.7833 -87.7500 334° Northwest  Level FlightAware Approximate